This is the latest recevied weather packets stored in our database for station/object KP4CRN. If no packets are shown the sender has not sent any weather packets the latest 10 day(s).
| Time | Temp. | Humidity | Pressure | Rain* | Wind** | Luminosity | Snow |
|---|---|---|---|---|---|---|---|
| 1778185224 | 28.89° C | 81% | 1014.9 hPa | 0 mm | - | 328 W/m² | - |
| 1778184920 | 30° C | 78% | 1014.8 hPa | 0 mm | - | 423 W/m² | - |
| 1778184616 | 30° C | 77% | 1014.9 hPa | 0 mm | - | 294 W/m² | - |
| 1778184312 | 29.44° C | 79% | 1014.9 hPa | 0 mm | - | 189 W/m² | - |
| 1778184008 | 29.44° C | 78% | 1015 hPa | 0 mm | - | 176 W/m² | - |
| 1778183705 | 30° C | 78% | 1015 hPa | 0 mm | - | 229 W/m² | - |
| 1778183403 | 30.56° C | 78% | 1014.7 hPa | 0 mm | - | 297 W/m² | - |
| 1778183099 | 30° C | 78% | 1014.9 hPa | 0 mm | - | 161 W/m² | - |
| 1778182795 | 30° C | 77% | 1015 hPa | 0 mm | - | 316 W/m² | - |
| 1778182493 | 30° C | 79% | 1015.1 hPa | 0 mm | - | 157 W/m² | - |
| 1778182189 | 30° C | 78% | 1015.1 hPa | 0 mm | - | 146 W/m² | - |
| 1778181885 | 30° C | 78% | 1015.1 hPa | 0 mm | - | 137 W/m² | - |
| 1778181582 | 30.56° C | 78% | 1015.1 hPa | 0 mm | - | 160 W/m² | - |
| 1778181278 | 30.56° C | 77% | 1015 hPa | 0 mm | - | 218 W/m² | - |
| 1778180975 | 30.56° C | 77% | 1015.2 hPa | 0 mm | - | 121 W/m² | - |
| 1778180673 | 31.67° C | 74% | 1015.2 hPa | 0 mm | - | 694 W/m² | - |
| 1778180371 | 31.11° C | 75% | 1015.1 hPa | 0 mm | - | 344 W/m² | - |
| 1778180068 | 31.11° C | 74% | 1015.2 hPa | 0 mm | - | 253 W/m² | - |
| 1778179765 | 30.56° C | 75% | 1015.3 hPa | 0 mm | - | 176 W/m² | - |
| 1778179463 | 31.11° C | 74% | 1015.3 hPa | 0 mm | - | 175 W/m² | - |
| 1778179161 | 30.56° C | 75% | 1015.3 hPa | 0 mm | - | 282 W/m² | - |
| 1778178857 | 30.56° C | 75% | 1015.4 hPa | 0 mm | - | 225 W/m² | - |
| 1778178555 | 30.56° C | 74% | 1015.3 hPa | 0 mm | - | 213 W/m² | - |
| 1778178250 | 31.11° C | 74% | 1015.3 hPa | 0 mm | - | 305 W/m² | - |
| 1778177947 | 30.56° C | 75% | 1015.5 hPa | 0 mm | - | 206 W/m² | - |
* Rain latest hour (hover to see other rain measurements)
** Current wind speed in m/s (hover to see current wind gust speed)